Odane — JXWA — position and weather

sailwx.info

Track history (hours):
 
Tides and Currents Weather Stations Pressure Air Temp Water Temp Dewpoint Dewpoint Depression Visibility Wind Speed Wind Dir Waves Ship Positions

Odane

Last reported at 2018-May-13 22:31 UTC. Time now 2018-Jun-21 04:46 UTC.
Position N 69°06' E 017°27'.
Warning: this ship's position is 38 days out of date.

Length 28 m; draft 4.5 m.

MMSI: 257806500.

Date/timePositionNaut miles runAvg speedWind from/ knotsBaromVisibWave heightAir tempDewpointWater temp
2018-May-13 22:31N 69°06' E 017°27'0 8.4
2018-May-13 22:30N 69°06' E 017°27'4 8.7
2018-May-13 22:01N 69°07' E 017°38'122 7.2
2018-May-13 05:11N 70°26' E 022°07'2 9.2
2018-May-13 04:57N 70°27' E 022°14'13 8.9
2018-May-13 03:26N 70°30' E 022°52'4 8.6
2018-May-13 03:00N 70°32' E 023°02'4 8.4
2018-May-13 02:31N 70°35' E 023°10'4 8.5
2018-May-13 02:00N 70°38' E 023°19'4 8.1
2018-May-13 01:30N 70°41' E 023°28'4 7.9
2018-May-13 00:59N 70°44' E 023°36'  
Track history (hours):
 
Tides and Currents Weather Stations Pressure Air Temp Water Temp Dewpoint Dewpoint Depression Visibility Wind Speed Wind Dir Waves Ship Positions

Odane

Last reported at 2018-May-13 22:31 UTC. Time now 2018-Jun-21 04:46 UTC.
Position N 69°06' E 017°27'.
Warning: this ship's position is 38 days out of date.

Length 28 m; draft 4.5 m.

MMSI: 257806500.

Date/timePositionNaut miles runAvg speedWind from/ knotsBaromVisibWave heightAir tempDewpointWater temp
2018-May-13 22:31N 69°06' E 017°27'0 8.4
2018-May-13 22:30N 69°06' E 017°27'4 8.7
2018-May-13 22:01N 69°07' E 017°38'122 7.2
2018-May-13 05:11N 70°26' E 022°07'2 9.2
2018-May-13 04:57N 70°27' E 022°14'13 8.9
2018-May-13 03:26N 70°30' E 022°52'4 8.6
2018-May-13 03:00N 70°32' E 023°02'4 8.4
2018-May-13 02:31N 70°35' E 023°10'4 8.5
2018-May-13 02:00N 70°38' E 023°19'4 8.1
2018-May-13 01:30N 70°41' E 023°28'4 7.9
2018-May-13 00:59N 70°44' E 023°36'  

Dump ship's entire track history